sensor_id;sensor_type;location;lat;lon;timestamp;temperature;humidity
28175;SHT30;59417;44.788;10.334;2023-05-29T00:00:25;21.12;68.81
28175;SHT30;59417;44.788;10.334;2023-05-29T00:03:03;21.23;68.56
28175;SHT30;59417;44.788;10.334;2023-05-29T00:05:44;21.32;68.09
28175;SHT30;59417;44.788;10.334;2023-05-29T00:08:24;21.16;68.89
28175;SHT30;59417;44.788;10.334;2023-05-29T00:10:50;21.11;69.65
28175;SHT30;59417;44.788;10.334;2023-05-29T00:13:15;21.11;69.78
28175;SHT30;59417;44.788;10.334;2023-05-29T00:15:41;21.22;68.90
28175;SHT30;59417;44.788;10.334;2023-05-29T00:18:08;21.05;69.27
28175;SHT30;59417;44.788;10.334;2023-05-29T00:20:34;20.95;69.55
28175;SHT30;59417;44.788;10.334;2023-05-29T00:23:10;21.04;69.30
28175;SHT30;59417;44.788;10.334;2023-05-29T00:25:40;21.12;68.58
28175;SHT30;59417;44.788;10.334;2023-05-29T00:28:07;21.11;68.64
28175;SHT30;59417;44.788;10.334;2023-05-29T00:30:49;21.06;68.30
28175;SHT30;59417;44.788;10.334;2023-05-29T00:33:24;20.87;69.24
28175;SHT30;59417;44.788;10.334;2023-05-29T00:35:49;20.70;69.97
28175;SHT30;59417;44.788;10.334;2023-05-29T00:38:16;20.75;69.79
28175;SHT30;59417;44.788;10.334;2023-05-29T00:40:41;20.78;69.61
28175;SHT30;59417;44.788;10.334;2023-05-29T00:43:14;20.87;69.37
28175;SHT30;59417;44.788;10.334;2023-05-29T00:45:45;20.90;69.27
28175;SHT30;59417;44.788;10.334;2023-05-29T00:48:12;21.02;68.34
28175;SHT30;59417;44.788;10.334;2023-05-29T00:50:43;20.92;68.68
28175;SHT30;59417;44.788;10.334;2023-05-29T00:53:10;20.85;68.89
28175;SHT30;59417;44.788;10.334;2023-05-29T00:55:36;20.75;69.27
28175;SHT30;59417;44.788;10.334;2023-05-29T00:58:06;20.70;69.44
28175;SHT30;59417;44.788;10.334;2023-05-29T01:00:35;20.60;70.39
28175;SHT30;59417;44.788;10.334;2023-05-29T01:03:15;20.60;70.35
28175;SHT30;59417;44.788;10.334;2023-05-29T01:05:43;20.68;69.64
28175;SHT30;59417;44.788;10.334;2023-05-29T01:08:12;20.67;69.79
28175;SHT30;59417;44.788;10.334;2023-05-29T01:10:42;20.75;69.50
28175;SHT30;59417;44.788;10.334;2023-05-29T01:13:22;20.78;68.59
28175;SHT30;59417;44.788;10.334;2023-05-29T01:15:56;20.61;69.39
28175;SHT30;59417;44.788;10.334;2023-05-29T01:18:34;20.47;69.96
28175;SHT30;59417;44.788;10.334;2023-05-29T01:23:51;20.64;69.19
28175;SHT30;59417;44.788;10.334;2023-05-29T01:29:19;20.53;69.48
28175;SHT30;59417;44.788;10.334;2023-05-29T01:31:49;20.36;70.24
28175;SHT30;59417;44.788;10.334;2023-05-29T01:34:15;20.40;69.69
28175;SHT30;59417;44.788;10.334;2023-05-29T01:36:42;20.19;70.59
28175;SHT30;59417;44.788;10.334;2023-05-29T01:39:09;20.17;71.25
28175;SHT30;59417;44.788;10.334;2023-05-29T01:41:35;20.13;71.06
28175;SHT30;59417;44.788;10.334;2023-05-29T01:44:06;20.19;70.76
28175;SHT30;59417;44.788;10.334;2023-05-29T01:46:40;20.14;70.50
28175;SHT30;59417;44.788;10.334;2023-05-29T01:49:07;20.10;70.81
28175;SHT30;59417;44.788;10.334;2023-05-29T01:51:33;19.76;71.96
28175;SHT30;59417;44.788;10.334;2023-05-29T01:53:59;19.90;71.46
28175;SHT30;59417;44.788;10.334;2023-05-29T01:56:26;20.21;70.48
28175;SHT30;59417;44.788;10.334;2023-05-29T01:58:54;20.19;70.71
28175;SHT30;59417;44.788;10.334;2023-05-29T02:01:24;20.03;71.03
28175;SHT30;59417;44.788;10.334;2023-05-29T02:03:50;19.86;71.88
28175;SHT30;59417;44.788;10.334;2023-05-29T02:06:20;19.95;71.68
28175;SHT30;59417;44.788;10.334;2023-05-29T02:08:47;19.93;71.60
28175;SHT30;59417;44.788;10.334;2023-05-29T02:11:12;20.09;71.02
28175;SHT30;59417;44.788;10.334;2023-05-29T02:13:38;20.16;70.90
28175;SHT30;59417;44.788;10.334;2023-05-29T02:16:04;20.10;70.97
28175;SHT30;59417;44.788;10.334;2023-05-29T02:18:30;19.99;71.22
28175;SHT30;59417;44.788;10.334;2023-05-29T02:20:56;19.98;71.30
28175;SHT30;59417;44.788;10.334;2023-05-29T02:23:22;19.99;71.58
28175;SHT30;59417;44.788;10.334;2023-05-29T02:25:50;19.93;71.68
28175;SHT30;59417;44.788;10.334;2023-05-29T02:28:19;19.90;71.64
28175;SHT30;59417;44.788;10.334;2023-05-29T02:30:45;20.03;71.36
28175;SHT30;59417;44.788;10.334;2023-05-29T02:33:10;19.80;71.61
28175;SHT30;59417;44.788;10.334;2023-05-29T02:35:36;19.78;72.04
28175;SHT30;59417;44.788;10.334;2023-05-29T02:38:03;19.75;72.55
28175;SHT30;59417;44.788;10.334;2023-05-29T02:40:52;19.51;72.97
28175;SHT30;59417;44.788;10.334;2023-05-29T02:43:21;19.51;72.77
28175;SHT30;59417;44.788;10.334;2023-05-29T02:45:47;19.59;72.54
28175;SHT30;59417;44.788;10.334;2023-05-29T02:48:15;19.57;72.57
28175;SHT30;59417;44.788;10.334;2023-05-29T02:50:41;19.57;72.88
28175;SHT30;59417;44.788;10.334;2023-05-29T02:53:06;19.63;72.30
28175;SHT30;59417;44.788;10.334;2023-05-29T02:55:36;19.78;70.53
28175;SHT30;59417;44.788;10.334;2023-05-29T02:58:02;19.80;69.85
28175;SHT30;59417;44.788;10.334;2023-05-29T03:00:31;19.82;69.68
28175;SHT30;59417;44.788;10.334;2023-05-29T03:02:58;19.85;69.32
28175;SHT30;59417;44.788;10.334;2023-05-29T03:05:42;19.75;69.16
28175;SHT30;59417;44.788;10.334;2023-05-29T03:08:19;19.68;69.04
28175;SHT30;59417;44.788;10.334;2023-05-29T03:10:47;19.70;69.15
28175;SHT30;59417;44.788;10.334;2023-05-29T03:13:14;19.76;68.78
28175;SHT30;59417;44.788;10.334;2023-05-29T03:15:48;19.58;69.53
28175;SHT30;59417;44.788;10.334;2023-05-29T03:18:15;19.39;70.32
28175;SHT30;59417;44.788;10.334;2023-05-29T03:20:40;19.48;69.59
28175;SHT30;59417;44.788;10.334;2023-05-29T03:23:06;19.41;70.07
28175;SHT30;59417;44.788;10.334;2023-05-29T03:25:39;19.39;70.32
28175;SHT30;59417;44.788;10.334;2023-05-29T03:28:15;19.47;69.94
28175;SHT30;59417;44.788;10.334;2023-05-29T03:30:44;19.44;69.98
28175;SHT30;59417;44.788;10.334;2023-05-29T03:33:13;19.39;70.38
28175;SHT30;59417;44.788;10.334;2023-05-29T03:36:01;19.39;70.21
28175;SHT30;59417;44.788;10.334;2023-05-29T03:38:27;19.31;70.51
28175;SHT30;59417;44.788;10.334;2023-05-29T03:40:57;19.32;70.97
28175;SHT30;59417;44.788;10.334;2023-05-29T03:43:27;19.38;71.01
28175;SHT30;59417;44.788;10.334;2023-05-29T03:45:53;19.32;70.92
28175;SHT30;59417;44.788;10.334;2023-05-29T03:48:19;19.30;70.80
28175;SHT30;59417;44.788;10.334;2023-05-29T03:50:46;19.30;70.59
28175;SHT30;59417;44.788;10.334;2023-05-29T03:53:22;19.20;71.05
28175;SHT30;59417;44.788;10.334;2023-05-29T03:55:47;18.94;72.04
28175;SHT30;59417;44.788;10.334;2023-05-29T03:58:13;19.11;71.51
28175;SHT30;59417;44.788;10.334;2023-05-29T04:00:39;19.30;70.87
28175;SHT30;59417;44.788;10.334;2023-05-29T04:03:06;19.32;71.01
28175;SHT30;59417;44.788;10.334;2023-05-29T04:05:35;19.24;71.58
28175;SHT30;59417;44.788;10.334;2023-05-29T04:08:08;19.17;71.66
28175;SHT30;59417;44.788;10.334;2023-05-29T04:10:48;19.08;72.13
28175;SHT30;59417;44.788;10.334;2023-05-29T04:13:29;19.18;71.99
28175;SHT30;59417;44.788;10.334;2023-05-29T04:15:58;19.27;71.71
28175;SHT30;59417;44.788;10.334;2023-05-29T04:18:34;19.23;71.89
28175;SHT30;59417;44.788;10.334;2023-05-29T04:21:12;19.21;72.19
28175;SHT30;59417;44.788;10.334;2023-05-29T04:23:38;19.27;71.86
28175;SHT30;59417;44.788;10.334;2023-05-29T04:26:04;19.23;72.20
28175;SHT30;59417;44.788;10.334;2023-05-29T04:28:32;19.12;72.58
28175;SHT30;59417;44.788;10.334;2023-05-29T04:30:59;18.96;73.25
28175;SHT30;59417;44.788;10.334;2023-05-29T04:33:26;18.93;73.49
28175;SHT30;59417;44.788;10.334;2023-05-29T04:35:53;19.01;73.55
28175;SHT30;59417;44.788;10.334;2023-05-29T04:38:19;19.03;73.72
28175;SHT30;59417;44.788;10.334;2023-05-29T04:40:52;19.20;73.44
28175;SHT30;59417;44.788;10.334;2023-05-29T04:43:19;19.20;73.66
28175;SHT30;59417;44.788;10.334;2023-05-29T04:46:00;19.21;73.05
28175;SHT30;59417;44.788;10.334;2023-05-29T04:48:28;19.23;72.88
28175;SHT30;59417;44.788;10.334;2023-05-29T04:50:54;19.31;72.70
28175;SHT30;59417;44.788;10.334;2023-05-29T04:53:19;19.38;72.51
28175;SHT30;59417;44.788;10.334;2023-05-29T04:55:45;19.65;72.05
28175;SHT30;59417;44.788;10.334;2023-05-29T04:58:11;19.63;71.95
28175;SHT30;59417;44.788;10.334;2023-05-29T05:00:38;19.78;71.10
28175;SHT30;59417;44.788;10.334;2023-05-29T05:03:04;19.76;71.45
28175;SHT30;59417;44.788;10.334;2023-05-29T05:05:30;19.68;71.54
28175;SHT30;59417;44.788;10.334;2023-05-29T05:07:58;19.70;71.16
28175;SHT30;59417;44.788;10.334;2023-05-29T05:10:24;19.72;71.35
28175;SHT30;59417;44.788;10.334;2023-05-29T05:12:50;19.66;70.73
28175;SHT30;59417;44.788;10.334;2023-05-29T05:15:19;19.65;71.05
28175;SHT30;59417;44.788;10.334;2023-05-29T05:17:45;19.25;72.05
28175;SHT30;59417;44.788;10.334;2023-05-29T05:20:12;19.17;71.88
28175;SHT30;59417;44.788;10.334;2023-05-29T05:22:38;19.25;71.90
28175;SHT30;59417;44.788;10.334;2023-05-29T05:25:05;19.23;72.27
28175;SHT30;59417;44.788;10.334;2023-05-29T05:27:32;19.28;72.74
28175;SHT30;59417;44.788;10.334;2023-05-29T05:29:57;19.24;73.12
28175;SHT30;59417;44.788;10.334;2023-05-29T05:32:24;19.12;73.24
28175;SHT30;59417;44.788;10.334;2023-05-29T05:34:58;19.17;73.19
28175;SHT30;59417;44.788;10.334;2023-05-29T05:37:24;19.20;73.86
28175;SHT30;59417;44.788;10.334;2023-05-29T05:39:50;19.23;74.36
28175;SHT30;59417;44.788;10.334;2023-05-29T05:42:16;19.32;73.91
28175;SHT30;59417;44.788;10.334;2023-05-29T05:44:47;19.24;73.75
28175;SHT30;59417;44.788;10.334;2023-05-29T05:47:13;19.23;73.65
28175;SHT30;59417;44.788;10.334;2023-05-29T05:49:39;19.28;73.56
28175;SHT30;59417;44.788;10.334;2023-05-29T05:52:06;19.41;74.46
28175;SHT30;59417;44.788;10.334;2023-05-29T05:54:31;19.47;74.49
28175;SHT30;59417;44.788;10.334;2023-05-29T05:56:57;19.45;73.72
28175;SHT30;59417;44.788;10.334;2023-05-29T05:59:24;19.44;74.56
28175;SHT30;59417;44.788;10.334;2023-05-29T06:01:50;19.37;74.72
28175;SHT30;59417;44.788;10.334;2023-05-29T06:04:15;19.45;74.95
28175;SHT30;59417;44.788;10.334;2023-05-29T06:06:42;19.47;74.88
28175;SHT30;59417;44.788;10.334;2023-05-29T06:09:07;19.58;74.33
28175;SHT30;59417;44.788;10.334;2023-05-29T06:11:34;19.49;74.73
28175;SHT30;59417;44.788;10.334;2023-05-29T06:14:03;19.59;75.38
28175;SHT30;59417;44.788;10.334;2023-05-29T06:16:29;19.62;75.36
28175;SHT30;59417;44.788;10.334;2023-05-29T06:18:56;19.57;75.21
28175;SHT30;59417;44.788;10.334;2023-05-29T06:21:23;19.54;75.46
28175;SHT30;59417;44.788;10.334;2023-05-29T06:23:52;19.58;75.63
28175;SHT30;59417;44.788;10.334;2023-05-29T06:26:17;19.51;75.42
28175;SHT30;59417;44.788;10.334;2023-05-29T06:28:43;19.55;75.65
28175;SHT30;59417;44.788;10.334;2023-05-29T06:31:10;19.58;76.40
28175;SHT30;59417;44.788;10.334;2023-05-29T06:33:36;19.45;76.17
28175;SHT30;59417;44.788;10.334;2023-05-29T06:36:05;19.49;77.00
28175;SHT30;59417;44.788;10.334;2023-05-29T06:38:32;19.39;77.38
28175;SHT30;59417;44.788;10.334;2023-05-29T06:40:58;19.32;77.38
28175;SHT30;59417;44.788;10.334;2023-05-29T06:43:24;19.31;77.63
28175;SHT30;59417;44.788;10.334;2023-05-29T06:45:55;19.49;78.11
28175;SHT30;59417;44.788;10.334;2023-05-29T06:48:21;19.52;77.97
28175;SHT30;59417;44.788;10.334;2023-05-29T06:50:48;19.66;77.28
28175;SHT30;59417;44.788;10.334;2023-05-29T06:53:32;19.76;77.14
28175;SHT30;59417;44.788;10.334;2023-05-29T06:56:00;19.83;76.43
28175;SHT30;59417;44.788;10.334;2023-05-29T06:58:26;19.90;76.57
28175;SHT30;59417;44.788;10.334;2023-05-29T07:00:51;20.09;75.97
28175;SHT30;59417;44.788;10.334;2023-05-29T07:03:27;20.13;75.48
28175;SHT30;59417;44.788;10.334;2023-05-29T07:05:54;20.06;75.95
28175;SHT30;59417;44.788;10.334;2023-05-29T07:08:20;20.12;75.82
28175;SHT30;59417;44.788;10.334;2023-05-29T07:10:46;20.16;75.83
28175;SHT30;59417;44.788;10.334;2023-05-29T07:13:15;20.00;76.26
28175;SHT30;59417;44.788;10.334;2023-05-29T07:15:42;20.09;75.52
28175;SHT30;59417;44.788;10.334;2023-05-29T07:18:08;20.08;74.97
28175;SHT30;59417;44.788;10.334;2023-05-29T07:20:33;20.17;76.16
28175;SHT30;59417;44.788;10.334;2023-05-29T07:23:01;20.19;75.03
28175;SHT30;59417;44.788;10.334;2023-05-29T07:25:27;20.29;75.47
28175;SHT30;59417;44.788;10.334;2023-05-29T07:27:53;20.37;75.71
28175;SHT30;59417;44.788;10.334;2023-05-29T07:30:19;20.44;75.19
28175;SHT30;59417;44.788;10.334;2023-05-29T07:32:45;20.60;75.65
28175;SHT30;59417;44.788;10.334;2023-05-29T07:35:11;20.64;74.75
28175;SHT30;59417;44.788;10.334;2023-05-29T07:37:37;20.58;74.73
28175;SHT30;59417;44.788;10.334;2023-05-29T07:40:04;20.75;74.16
28175;SHT30;59417;44.788;10.334;2023-05-29T07:42:51;20.84;74.31
28175;SHT30;59417;44.788;10.334;2023-05-29T07:45:17;20.87;73.34
28175;SHT30;59417;44.788;10.334;2023-05-29T07:47:43;21.02;74.10
28175;SHT30;59417;44.788;10.334;2023-05-29T07:50:10;21.23;72.08
28175;SHT30;59417;44.788;10.334;2023-05-29T07:52:36;21.39;70.90
28175;SHT30;59417;44.788;10.334;2023-05-29T07:55:02;21.46;69.35
28175;SHT30;59417;44.788;10.334;2023-05-29T07:57:28;21.50;70.10
28175;SHT30;59417;44.788;10.334;2023-05-29T07:59:57;21.62;68.16
28175;SHT30;59417;44.788;10.334;2023-05-29T08:02:23;21.67;69.01
28175;SHT30;59417;44.788;10.334;2023-05-29T08:05:12;21.65;69.27
28175;SHT30;59417;44.788;10.334;2023-05-29T08:07:39;21.63;68.26
28175;SHT30;59417;44.788;10.334;2023-05-29T08:10:07;21.69;67.56
28175;SHT30;59417;44.788;10.334;2023-05-29T08:12:33;21.98;67.77
28175;SHT30;59417;44.788;10.334;2023-05-29T08:15:01;22.16;66.90
28175;SHT30;59417;44.788;10.334;2023-05-29T08:17:27;22.28;67.75
28175;SHT30;59417;44.788;10.334;2023-05-29T08:19:55;22.27;66.44
28175;SHT30;59417;44.788;10.334;2023-05-29T08:22:27;22.39;65.42
28175;SHT30;59417;44.788;10.334;2023-05-29T08:24:53;22.37;64.75
28175;SHT30;59417;44.788;10.334;2023-05-29T08:27:19;22.38;64.78
28175;SHT30;59417;44.788;10.334;2023-05-29T08:29:45;22.45;66.31
28175;SHT30;59417;44.788;10.334;2023-05-29T08:32:11;22.55;66.10
28175;SHT30;59417;44.788;10.334;2023-05-29T08:34:36;22.67;66.01
28175;SHT30;59417;44.788;10.334;2023-05-29T08:37:02;22.80;66.23
28175;SHT30;59417;44.788;10.334;2023-05-29T08:39:28;22.98;66.66
28175;SHT30;59417;44.788;10.334;2023-05-29T08:42:19;23.04;63.60
28175;SHT30;59417;44.788;10.334;2023-05-29T08:44:47;23.06;64.81
28175;SHT30;59417;44.788;10.334;2023-05-29T08:47:16;22.92;64.17
28175;SHT30;59417;44.788;10.334;2023-05-29T08:49:51;22.75;63.66
28175;SHT30;59417;44.788;10.334;2023-05-29T08:52:29;22.92;65.16
28175;SHT30;59417;44.788;10.334;2023-05-29T08:54:58;22.89;61.35
28175;SHT30;59417;44.788;10.334;2023-05-29T08:57:28;22.88;61.90
28175;SHT30;59417;44.788;10.334;2023-05-29T08:59:55;22.85;61.53
28175;SHT30;59417;44.788;10.334;2023-05-29T09:02:21;22.85;60.47
28175;SHT30;59417;44.788;10.334;2023-05-29T09:04:47;22.86;61.25
28175;SHT30;59417;44.788;10.334;2023-05-29T09:07:17;22.93;60.66
28175;SHT30;59417;44.788;10.334;2023-05-29T09:09:44;22.85;60.98
28175;SHT30;59417;44.788;10.334;2023-05-29T09:12:10;23.04;63.09
28175;SHT30;59417;44.788;10.334;2023-05-29T09:14:38;23.13;61.13
28175;SHT30;59417;44.788;10.334;2023-05-29T09:17:05;23.29;62.58
28175;SHT30;59417;44.788;10.334;2023-05-29T09:19:32;23.47;61.25
28175;SHT30;59417;44.788;10.334;2023-05-29T09:22:06;23.51;60.28
28175;SHT30;59417;44.788;10.334;2023-05-29T09:24:33;23.51;59.96
28175;SHT30;59417;44.788;10.334;2023-05-29T09:27:03;23.58;61.36
28175;SHT30;59417;44.788;10.334;2023-05-29T09:29:37;23.78;61.29
28175;SHT30;59417;44.788;10.334;2023-05-29T09:32:07;23.74;59.46
28175;SHT30;59417;44.788;10.334;2023-05-29T09:34:34;23.70;61.69
28175;SHT30;59417;44.788;10.334;2023-05-29T09:37:07;23.82;62.50
28175;SHT30;59417;44.788;10.334;2023-05-29T09:39:54;23.87;60.67
28175;SHT30;59417;44.788;10.334;2023-05-29T09:42:20;23.87;59.75
28175;SHT30;59417;44.788;10.334;2023-05-29T09:44:49;23.85;59.26
28175;SHT30;59417;44.788;10.334;2023-05-29T09:47:17;23.92;61.46
28175;SHT30;59417;44.788;10.334;2023-05-29T09:49:44;24.11;60.30
28175;SHT30;59417;44.788;10.334;2023-05-29T09:52:12;24.22;59.71
28175;SHT30;59417;44.788;10.334;2023-05-29T09:54:44;24.38;59.05
28175;SHT30;59417;44.788;10.334;2023-05-29T09:57:17;24.32;59.65
28175;SHT30;59417;44.788;10.334;2023-05-29T09:59:46;24.33;61.46
28175;SHT30;59417;44.788;10.334;2023-05-29T10:02:17;24.48;59.87
28175;SHT30;59417;44.788;10.334;2023-05-29T10:04:43;24.69;58.11
28175;SHT30;59417;44.788;10.334;2023-05-29T10:07:20;24.80;57.57
28175;SHT30;59417;44.788;10.334;2023-05-29T10:09:53;24.53;56.33
28175;SHT30;59417;44.788;10.334;2023-05-29T10:12:21;24.41;58.27
28175;SHT30;59417;44.788;10.334;2023-05-29T10:14:49;24.52;57.88
28175;SHT30;59417;44.788;10.334;2023-05-29T10:17:17;24.36;56.07
28175;SHT30;59417;44.788;10.334;2023-05-29T10:19:45;24.45;57.71
28175;SHT30;59417;44.788;10.334;2023-05-29T10:22:13;24.63;57.69
28175;SHT30;59417;44.788;10.334;2023-05-29T10:24:39;24.73;55.89
28175;SHT30;59417;44.788;10.334;2023-05-29T10:27:05;24.82;55.09
28175;SHT30;59417;44.788;10.334;2023-05-29T10:29:50;25.04;57.83
28175;SHT30;59417;44.788;10.334;2023-05-29T10:32:38;25.04;54.71
28175;SHT30;59417;44.788;10.334;2023-05-29T10:35:19;25.03;56.91
28175;SHT30;59417;44.788;10.334;2023-05-29T10:37:57;24.76;54.64
28175;SHT30;59417;44.788;10.334;2023-05-29T10:40:26;24.70;56.83
28175;SHT30;59417;44.788;10.334;2023-05-29T10:42:53;24.87;56.90
28175;SHT30;59417;44.788;10.334;2023-05-29T10:53:08;25.20;55.55
28175;SHT30;59417;44.788;10.334;2023-05-29T10:55:37;25.51;52.71
28175;SHT30;59417;44.788;10.334;2023-05-29T10:58:17;25.74;54.63
28175;SHT30;59417;44.788;10.334;2023-05-29T11:00:45;25.82;52.14
28175;SHT30;59417;44.788;10.334;2023-05-29T11:03:25;25.99;51.94
28175;SHT30;59417;44.788;10.334;2023-05-29T11:08:46;25.61;53.76
28175;SHT30;59417;44.788;10.334;2023-05-29T11:11:46;25.74;54.83
28175;SHT30;59417;44.788;10.334;2023-05-29T11:14:07;25.93;52.58
28175;SHT30;59417;44.788;10.334;2023-05-29T11:19:03;25.68;55.55
28175;SHT30;59417;44.788;10.334;2023-05-29T11:21:44;25.88;54.30
28175;SHT30;59417;44.788;10.334;2023-05-29T11:24:29;26.15;54.46
28175;SHT30;59417;44.788;10.334;2023-05-29T11:26:56;26.32;50.59
28175;SHT30;59417;44.788;10.334;2023-05-29T11:29:26;26.28;50.57
28175;SHT30;59417;44.788;10.334;2023-05-29T11:31:58;26.25;51.38
28175;SHT30;59417;44.788;10.334;2023-05-29T11:34:28;26.37;53.03
28175;SHT30;59417;44.788;10.334;2023-05-29T11:36:57;26.56;52.27
28175;SHT30;59417;44.788;10.334;2023-05-29T11:39:24;26.54;53.24
28175;SHT30;59417;44.788;10.334;2023-05-29T11:41:50;26.71;52.80
28175;SHT30;59417;44.788;10.334;2023-05-29T11:44:17;26.92;51.80
28175;SHT30;59417;44.788;10.334;2023-05-29T11:46:43;27.10;51.51
28175;SHT30;59417;44.788;10.334;2023-05-29T11:49:08;27.18;51.19
28175;SHT30;59417;44.788;10.334;2023-05-29T11:51:34;27.28;50.16
28175;SHT30;59417;44.788;10.334;2023-05-29T11:54:00;27.10;49.97
28175;SHT30;59417;44.788;10.334;2023-05-29T11:56:27;27.31;50.30
28175;SHT30;59417;44.788;10.334;2023-05-29T11:58:53;27.38;49.98
28175;SHT30;59417;44.788;10.334;2023-05-29T12:01:24;27.07;49.51
28175;SHT30;59417;44.788;10.334;2023-05-29T12:03:50;26.97;51.51
28175;SHT30;59417;44.788;10.334;2023-05-29T12:06:30;26.74;51.36
28175;SHT30;59417;44.788;10.334;2023-05-29T12:08:57;26.76;52.45
28175;SHT30;59417;44.788;10.334;2023-05-29T12:11:25;26.92;49.93
28175;SHT30;59417;44.788;10.334;2023-05-29T12:13:58;27.12;52.06
28175;SHT30;59417;44.788;10.334;2023-05-29T12:16:32;27.45;51.41
28175;SHT30;59417;44.788;10.334;2023-05-29T12:18:59;27.66;50.14
28175;SHT30;59417;44.788;10.334;2023-05-29T12:21:27;27.80;49.51
28175;SHT30;59417;44.788;10.334;2023-05-29T12:23:53;27.86;48.18
28175;SHT30;59417;44.788;10.334;2023-05-29T12:26:22;27.80;48.69
28175;SHT30;59417;44.788;10.334;2023-05-29T12:28:50;27.86;47.36
28175;SHT30;59417;44.788;10.334;2023-05-29T12:31:30;27.94;46.98
28175;SHT30;59417;44.788;10.334;2023-05-29T12:34:00;27.86;47.87
28175;SHT30;59417;44.788;10.334;2023-05-29T12:36:26;27.63;48.34
28175;SHT30;59417;44.788;10.334;2023-05-29T12:38:52;27.34;49.43
28175;SHT30;59417;44.788;10.334;2023-05-29T12:41:28;27.12;50.83
28175;SHT30;59417;44.788;10.334;2023-05-29T12:43:57;27.16;53.05
28175;SHT30;59417;44.788;10.334;2023-05-29T12:46:25;27.19;51.70
28175;SHT30;59417;44.788;10.334;2023-05-29T12:48:53;27.21;52.17
28175;SHT30;59417;44.788;10.334;2023-05-29T12:51:23;27.53;49.89
28175;SHT30;59417;44.788;10.334;2023-05-29T12:53:49;27.69;50.23
28175;SHT30;59417;44.788;10.334;2023-05-29T12:56:15;27.77;49.35
28175;SHT30;59417;44.788;10.334;2023-05-29T12:58:41;27.83;48.30
28175;SHT30;59417;44.788;10.334;2023-05-29T13:01:12;28.07;48.65
28175;SHT30;59417;44.788;10.334;2023-05-29T13:03:40;28.21;48.66
28175;SHT30;59417;44.788;10.334;2023-05-29T13:06:06;28.45;49.12
28175;SHT30;59417;44.788;10.334;2023-05-29T13:08:32;28.61;48.48
28175;SHT30;59417;44.788;10.334;2023-05-29T13:10:58;28.54;46.24
28175;SHT30;59417;44.788;10.334;2023-05-29T13:13:24;28.44;46.57
28175;SHT30;59417;44.788;10.334;2023-05-29T13:15:49;28.49;48.06
28175;SHT30;59417;44.788;10.334;2023-05-29T13:18:15;28.47;47.14
28175;SHT30;59417;44.788;10.334;2023-05-29T13:20:41;28.34;47.50
28175;SHT30;59417;44.788;10.334;2023-05-29T13:23:06;27.79;48.53
28175;SHT30;59417;44.788;10.334;2023-05-29T13:25:34;27.61;49.94
28175;SHT30;59417;44.788;10.334;2023-05-29T13:28:00;27.31;48.89
28175;SHT30;59417;44.788;10.334;2023-05-29T13:30:26;27.28;49.89
28175;SHT30;59417;44.788;10.334;2023-05-29T13:32:52;27.42;48.61
28175;SHT30;59417;44.788;10.334;2023-05-29T13:35:19;27.55;48.95
28175;SHT30;59417;44.788;10.334;2023-05-29T13:37:44;27.56;49.50
28175;SHT30;59417;44.788;10.334;2023-05-29T13:40:11;27.65;49.87
28175;SHT30;59417;44.788;10.334;2023-05-29T13:42:38;27.79;46.68
28175;SHT30;59417;44.788;10.334;2023-05-29T13:45:06;27.65;47.23
28175;SHT30;59417;44.788;10.334;2023-05-29T13:47:32;27.46;49.87
28175;SHT30;59417;44.788;10.334;2023-05-29T13:49:59;27.26;50.19
28175;SHT30;59417;44.788;10.334;2023-05-29T13:52:26;27.37;49.73
28175;SHT30;59417;44.788;10.334;2023-05-29T13:54:51;27.45;50.12
28175;SHT30;59417;44.788;10.334;2023-05-29T13:57:17;27.45;49.83
28175;SHT30;59417;44.788;10.334;2023-05-29T13:59:43;27.48;47.21
28175;SHT30;59417;44.788;10.334;2023-05-29T14:02:08;27.62;45.56
28175;SHT30;59417;44.788;10.334;2023-05-29T14:04:35;27.22;47.12
28175;SHT30;59417;44.788;10.334;2023-05-29T14:07:01;27.39;48.06
28175;SHT30;59417;44.788;10.334;2023-05-29T14:09:26;27.53;48.26
28175;SHT30;59417;44.788;10.334;2023-05-29T14:11:57;27.53;47.19
28175;SHT30;59417;44.788;10.334;2023-05-29T14:14:24;27.67;45.59
28175;SHT30;59417;44.788;10.334;2023-05-29T14:16:49;27.80;46.17
28175;SHT30;59417;44.788;10.334;2023-05-29T14:19:17;27.94;45.63
28175;SHT30;59417;44.788;10.334;2023-05-29T14:21:43;28.03;47.54
28175;SHT30;59417;44.788;10.334;2023-05-29T14:24:09;27.73;47.38
28175;SHT30;59417;44.788;10.334;2023-05-29T14:26:35;27.62;47.70
28175;SHT30;59417;44.788;10.334;2023-05-29T14:29:01;27.59;48.52
28175;SHT30;59417;44.788;10.334;2023-05-29T14:31:27;27.51;48.67
28175;SHT30;59417;44.788;10.334;2023-05-29T14:33:52;27.38;48.76
28175;SHT30;59417;44.788;10.334;2023-05-29T14:36:18;27.59;48.13
28175;SHT30;59417;44.788;10.334;2023-05-29T14:38:44;27.63;46.47
28175;SHT30;59417;44.788;10.334;2023-05-29T14:41:11;27.77;48.10
28175;SHT30;59417;44.788;10.334;2023-05-29T14:43:42;27.89;44.77
28175;SHT30;59417;44.788;10.334;2023-05-29T14:46:08;27.83;45.83
28175;SHT30;59417;44.788;10.334;2023-05-29T14:48:34;27.82;45.35
28175;SHT30;59417;44.788;10.334;2023-05-29T14:51:00;27.56;46.60
28175;SHT30;59417;44.788;10.334;2023-05-29T14:53:26;27.49;45.30
28175;SHT30;59417;44.788;10.334;2023-05-29T14:55:52;27.41;47.68
28175;SHT30;59417;44.788;10.334;2023-05-29T14:58:19;27.39;47.62
28175;SHT30;59417;44.788;10.334;2023-05-29T15:00:44;27.35;48.00
28175;SHT30;59417;44.788;10.334;2023-05-29T15:03:10;27.28;48.26
28175;SHT30;59417;44.788;10.334;2023-05-29T15:05:36;27.35;47.33
28175;SHT30;59417;44.788;10.334;2023-05-29T15:08:02;27.52;47.98
28175;SHT30;59417;44.788;10.334;2023-05-29T15:10:28;27.75;45.42
28175;SHT30;59417;44.788;10.334;2023-05-29T15:12:54;27.73;45.94
28175;SHT30;59417;44.788;10.334;2023-05-29T15:15:26;27.72;46.28
28175;SHT30;59417;44.788;10.334;2023-05-29T15:17:53;27.77;46.90
28175;SHT30;59417;44.788;10.334;2023-05-29T15:20:22;27.55;46.37
28175;SHT30;59417;44.788;10.334;2023-05-29T15:22:48;27.46;47.11
28175;SHT30;59417;44.788;10.334;2023-05-29T15:25:15;27.31;46.48
28175;SHT30;59417;44.788;10.334;2023-05-29T15:27:41;27.21;46.89
28175;SHT30;59417;44.788;10.334;2023-05-29T15:30:14;27.15;47.33
28175;SHT30;59417;44.788;10.334;2023-05-29T15:32:42;27.31;47.93
28175;SHT30;59417;44.788;10.334;2023-05-29T15:35:13;27.26;48.41
28175;SHT30;59417;44.788;10.334;2023-05-29T15:37:40;27.11;48.47
28175;SHT30;59417;44.788;10.334;2023-05-29T15:40:07;26.97;48.96
28175;SHT30;59417;44.788;10.334;2023-05-29T15:42:34;27.10;47.74